Time;durP1;ratioP1;P1;durP2;ratioP2;P2;SDS_P1;SDS_P2;PMS_P1;PMS_P2;Temp;Humidity;BMP_temperature;BMP_pressure;BME280_temperature;BME280_humidity;BME280_pressure;Samples;Min_cycle;Max_cycle;Signal;HPM_P1;HPM_P2
2022/11/08 00:02:47;;;;;;;14.77;9.73;;;20.90;51.70;;;;;;5009975;28;20590;-61
2022/11/08 00:16:24;;;;;;;14.20;10.10;;;20.90;51.70;;;;;;5009374;28;20488;-60
2022/11/08 00:18:51;;;;;;;16.50;11.05;;;20.90;51.70;;;;;;5004733;28;20480;-61
2022/11/08 00:21:18;;;;;;;15.40;10.50;;;20.90;51.70;;;;;;5008571;28;20069;-60
2022/11/08 00:23:45;;;;;;;14.63;9.90;;;20.90;51.80;;;;;;5009773;28;20392;-60
2022/11/08 00:26:12;;;;;;;14.25;10.13;;;20.90;51.70;;;;;;5008968;28;20060;-60
2022/11/08 00:28:39;;;;;;;14.07;9.18;;;20.90;51.80;;;;;;5009574;28;20061;-60
2022/11/08 00:31:06;;;;;;;15.70;10.40;;;20.90;51.70;;;;;;5008446;28;20069;-60
2022/11/08 00:33:33;;;;;;;13.73;9.68;;;20.90;51.70;;;;;;5008887;28;20128;-60
2022/11/08 00:36:01;;;;;;;14.40;9.68;;;21.00;51.80;;;;;;4990824;28;20125;-60
2022/11/08 00:38:28;;;;;;;14.15;10.05;;;20.90;51.70;;;;;;5009628;28;20072;-60
2022/11/08 00:40:55;;;;;;;14.77;10.55;;;20.90;51.70;;;;;;5007743;28;20411;-60
2022/11/08 00:43:22;;;;;;;15.02;9.88;;;20.90;51.60;;;;;;4976075;28;20346;-60
2022/11/08 00:45:49;;;;;;;14.18;9.93;;;20.90;51.60;;;;;;5008267;28;20054;-61
2022/11/08 00:48:16;;;;;;;15.25;9.75;;;20.90;51.60;;;;;;5008258;28;20057;-60
2022/11/08 00:50:44;;;;;;;14.05;9.27;;;20.90;51.60;;;;;;5004035;28;20401;-60
2022/11/08 00:53:11;;;;;;;12.95;9.50;;;20.90;51.60;;;;;;5008644;28;20087;-60
2022/11/08 00:55:41;;;;;;;15.23;9.63;;;20.90;51.60;;;;;;5008969;28;20064;-60
2022/11/08 00:58:08;;;;;;;13.70;9.02;;;20.90;51.60;;;;;;5007513;28;20060;-60
2022/11/08 01:00:35;;;;;;;13.45;9.18;;;20.90;51.60;;;;;;4991487;28;20049;-60
2022/11/08 01:03:18;;;;;;;15.98;9.88;;;20.90;51.50;;;;;;4990559;28;20423;-60
2022/11/08 01:05:46;;;;;;;13.02;9.25;;;20.90;51.50;;;;;;4992480;28;20077;-60
2022/11/08 01:08:13;;;;;;;12.88;9.13;;;20.90;51.60;;;;;;4991031;28;20054;-60
2022/11/08 01:10:42;;;;;;;11.18;8.43;;;20.90;51.60;;;;;;5007790;28;20053;-61
2022/11/08 01:13:10;;;;;;;14.70;8.95;;;20.90;51.50;;;;;;5008892;28;20438;-60
2022/11/08 01:15:39;;;;;;;11.13;8.40;;;20.90;51.50;;;;;;5007903;28;20080;-60
2022/11/08 01:18:08;;;;;;;12.50;9.20;;;20.80;51.50;;;;;;5008850;28;20046;-60
2022/11/08 01:20:39;;;;;;;12.23;8.70;;;20.80;51.50;;;;;;5009473;28;20057;-60
2022/11/08 01:23:07;;;;;;;12.15;9.13;;;20.80;51.50;;;;;;5007532;28;20136;-61
2022/11/08 01:25:39;;;;;;;11.15;8.00;;;20.80;51.50;;;;;;5012900;28;20077;-60
2022/11/08 01:28:06;;;;;;;11.65;8.07;;;20.80;51.50;;;;;;5014612;28;20053;-60
2022/11/08 01:30:38;;;;;;;12.65;8.45;;;20.80;51.60;;;;;;5032641;28;20056;-60
2022/11/08 01:33:05;;;;;;;12.18;8.32;;;20.80;51.50;;;;;;5031641;28;20041;-60
2022/11/08 01:35:34;;;;;;;12.65;9.25;;;20.80;51.50;;;;;;5032001;28;20049;-60
2022/11/08 01:38:02;;;;;;;12.32;8.15;;;20.80;51.50;;;;;;5031244;28;20406;-61
2022/11/08 01:40:30;;;;;;;12.60;8.43;;;20.80;51.50;;;;;;5031709;28;20077;-60
2022/11/08 01:42:57;;;;;;;11.93;8.38;;;20.80;51.50;;;;;;5032087;28;20132;-61
2022/11/08 01:46:04;;;;;;;11.32;7.97;;;20.80;51.50;;;;;;5031242;28;20041;-60
2022/11/08 01:48:31;;;;;;;10.27;8.13;;;20.80;51.50;;;;;;5031873;28;20057;-60
2022/11/08 01:50:59;;;;;;;11.57;8.10;;;20.80;51.50;;;;;;5031998;28;20062;-61
2022/11/08 01:53:28;;;;;;;13.20;8.77;;;20.80;51.50;;;;;;5030984;28;20050;-60
2022/11/08 01:55:56;;;;;;;10.20;7.35;;;20.80;51.50;;;;;;5027840;28;20054;-60
2022/11/08 01:58:27;;;;;;;10.57;7.78;;;20.80;51.50;;;;;;5031265;28;20052;-60
2022/11/08 02:00:56;;;;;;;12.15;8.48;;;20.80;51.50;;;;;;5031849;28;20202;-60
2022/11/08 02:03:24;;;;;;;11.43;8.38;;;20.70;51.40;;;;;;5031295;28;20517;-61
2022/11/08 02:05:51;;;;;;;9.07;7.28;;;20.70;51.40;;;;;;5031929;28;20052;-60
2022/11/08 02:08:33;;;;;;;10.52;8.32;;;20.70;51.40;;;;;;5031248;28;20056;-60
2022/11/08 02:11:01;;;;;;;10.73;7.82;;;20.70;51.40;;;;;;5030668;28;20053;-62
2022/11/08 02:13:30;;;;;;;10.45;7.68;;;20.70;51.50;;;;;;5031527;28;20143;-60
2022/11/08 02:15:58;;;;;;;12.88;7.68;;;20.70;51.40;;;;;;5013797;28;20490;-60
2022/11/08 02:18:28;;;;;;;10.20;8.00;;;20.70;51.40;;;;;;5031254;28;20053;-60
2022/11/08 02:21:10;;;;;;;10.98;7.78;;;20.70;51.40;;;;;;5014103;28;20042;-60
2022/11/08 02:23:56;;;;;;;10.75;7.63;;;20.70;51.40;;;;;;5030712;28;20053;-60
2022/11/08 02:26:28;;;;;;;12.95;7.60;;;20.70;51.50;;;;;;5026391;28;20047;-60
2022/11/08 02:28:55;;;;;;;8.98;7.20;;;20.70;51.50;;;;;;5030897;28;20045;-60
2022/11/08 02:31:22;;;;;;;10.18;7.38;;;20.70;51.40;;;;;;5031736;28;20059;-60
2022/11/08 02:33:49;;;;;;;11.63;8.02;;;20.70;51.40;;;;;;5030439;28;20042;-60
2022/11/08 02:36:23;;;;;;;10.32;7.68;;;20.70;51.40;;;;;;5020334;28;20054;-61
2022/11/08 02:38:54;;;;;;;12.80;8.13;;;20.70;51.40;;;;;;5010930;28;20056;-60
2022/11/08 02:41:21;;;;;;;11.00;7.80;;;20.70;51.40;;;;;;4993226;28;20046;-60
2022/11/08 02:43:48;;;;;;;11.38;7.63;;;20.70;51.40;;;;;;5010493;28;20522;-60
2022/11/08 02:46:15;;;;;;;11.68;8.05;;;20.70;51.40;;;;;;5010592;28;20049;-60
2022/11/08 02:48:42;;;;;;;8.95;6.85;;;20.70;51.40;;;;;;4977265;28;20049;-60
2022/11/08 02:51:09;;;;;;;10.32;7.28;;;20.70;51.40;;;;;;5011079;28;20049;-61
2022/11/08 02:53:36;;;;;;;9.15;6.75;;;20.70;51.40;;;;;;5010467;28;20056;-60
2022/11/08 02:56:03;;;;;;;9.63;7.47;;;20.70;51.30;;;;;;5010990;28;20042;-60
2022/11/08 02:58:30;;;;;;;9.57;7.32;;;20.70;51.30;;;;;;5010144;28;20046;-61
2022/11/08 03:00:57;;;;;;;9.48;6.90;;;20.70;51.30;;;;;;5005885;28;20522;-60
2022/11/08 03:03:25;;;;;;;8.50;6.65;;;20.70;51.30;;;;;;5010368;28;20049;-60
2022/11/08 03:05:52;;;;;;;10.18;7.30;;;20.70;51.20;;;;;;5010158;28;20042;-60
2022/11/08 03:08:19;;;;;;;11.20;7.20;;;20.70;51.20;;;;;;5010545;28;20053;-61
2022/11/08 03:10:47;;;;;;;9.05;6.53;;;20.70;51.20;;;;;;5010475;28;20080;-60
2022/11/08 03:13:14;;;;;;;10.18;6.65;;;20.70;51.20;;;;;;5010421;28;20054;-61
2022/11/08 03:15:41;;;;;;;8.70;6.75;;;20.70;51.20;;;;;;4992969;28;20076;-61
2022/11/08 03:18:08;;;;;;;9.23;6.60;;;20.70;51.10;;;;;;5009266;28;20050;-60
2022/11/08 03:20:35;;;;;;;8.52;6.35;;;20.70;51.10;;;;;;5010427;28;20050;-60
2022/11/08 03:23:05;;;;;;;10.43;7.22;;;20.70;51.10;;;;;;5010097;28;20085;-61
2022/11/08 03:25:33;;;;;;;;;;;20.70;51.10;;;;;;5011095;28;20057;-60
2022/11/08 03:28:02;;;;;;;11.48;6.82;;;20.70;51.10;;;;;;5009798;28;19922;-60
2022/11/08 03:30:29;;;;;;;8.93;6.70;;;20.70;51.20;;;;;;5009937;28;20045;-61
2022/11/08 03:32:56;;;;;;;9.13;6.70;;;20.60;51.10;;;;;;5005155;28;20495;-60
2022/11/08 03:35:23;;;;;;;9.23;6.43;;;20.70;51.10;;;;;;5009609;28;20058;-60
2022/11/08 03:37:55;;;;;;;10.25;7.05;;;20.70;51.10;;;;;;5009867;28;20038;-60
2022/11/08 03:40:23;;;;;;;9.30;7.13;;;20.60;51.10;;;;;;5010011;28;20088;-61
2022/11/08 03:42:50;;;;;;;9.13;6.55;;;20.70;51.20;;;;;;5009298;28;20491;-60
2022/11/08 03:45:18;;;;;;;8.88;5.80;;;20.70;51.20;;;;;;5009710;28;20068;-61
2022/11/08 03:47:46;;;;;;;8.95;6.80;;;20.60;51.10;;;;;;4992054;28;20050;-60
2022/11/08 03:50:15;;;;;;;7.22;5.80;;;20.60;51.10;;;;;;5009107;28;20060;-60
2022/11/08 03:52:48;;;;;;;8.73;6.25;;;20.60;51.10;;;;;;5009121;28;20507;-60
2022/11/08 03:55:17;;;;;;;9.07;6.03;;;20.70;51.20;;;;;;5009674;28;20057;-60
2022/11/08 03:57:45;;;;;;;8.13;6.32;;;20.60;51.10;;;;;;4992080;28;20049;-60
2022/11/08 04:00:15;;;;;;;8.70;6.63;;;20.60;51.10;;;;;;4992154;28;20060;-60
2022/11/08 04:02:42;;;;;;;8.67;6.20;;;20.60;51.10;;;;;;5009288;28;20050;-60
2022/11/08 04:05:11;;;;;;;8.48;5.68;;;20.60;51.10;;;;;;5005117;28;20054;-60
2022/11/08 04:07:38;;;;;;;10.63;6.03;;;20.60;51.10;;;;;;4991369;28;20474;-60
2022/11/08 04:10:07;;;;;;;8.48;6.32;;;20.60;51.10;;;;;;4991530;28;20046;-60
2022/11/08 04:15:29;;;;;;;7.85;5.72;;;20.60;51.10;;;;;;5009189;28;20057;-61
2022/11/08 04:23:35;;;;;;;9.27;6.03;;;20.60;51.10;;;;;;5008440;28;20046;-60
2022/11/08 04:26:05;;;;;;;7.82;6.15;;;20.60;51.10;;;;;;4991691;28;20053;-60
2022/11/08 04:28:35;;;;;;;7.30;5.05;;;20.50;51.00;;;;;;5009139;28;20381;-60
2022/11/08 04:31:05;;;;;;;7.15;5.40;;;20.50;51.00;;;;;;4991323;28;20411;-60
2022/11/08 04:33:32;;;;;;;9.10;6.20;;;20.50;51.10;;;;;;5020112;28;20046;-60
2022/11/08 04:36:02;;;;;;;7.20;5.85;;;20.60;51.10;;;;;;5006986;28;20046;-60
2022/11/08 04:38:31;;;;;;;7.90;6.00;;;20.60;51.10;;;;;;5008080;28;20045;-61
2022/11/08 04:41:05;;;;;;;9.63;6.15;;;20.60;51.60;;;;;;5027105;28;20519;-60
2022/11/08 04:43:33;;;;;;;8.43;5.60;;;20.60;51.00;;;;;;5028390;28;20052;-60
2022/11/08 04:46:03;;;;;;;7.55;6.22;;;20.60;51.00;;;;;;5013889;28;20058;-60
2022/11/08 04:48:30;;;;;;;6.63;5.07;;;20.60;51.00;;;;;;5008471;28;20050;-61
2022/11/08 04:51:06;;;;;;;7.68;5.40;;;20.60;51.00;;;;;;5008511;28;20164;-60
2022/11/08 04:53:33;;;;;;;5.45;4.78;;;20.60;51.00;;;;;;5008553;28;20050;-61
2022/11/08 04:56:06;;;;;;;7.40;5.55;;;20.60;51.00;;;;;;5007180;28;20483;-60
2022/11/08 04:58:36;;;;;;;6.63;5.28;;;20.60;50.90;;;;;;5008308;28;20052;-60
2022/11/08 05:01:04;;;;;;;7.35;5.55;;;20.60;50.90;;;;;;4990946;28;20054;-60
2022/11/08 05:03:32;;;;;;;7.35;5.75;;;20.50;50.90;;;;;;4990914;28;20487;-60
2022/11/08 05:06:04;;;;;;;6.50;5.53;;;20.60;50.80;;;;;;5008919;28;20049;-60
2022/11/08 05:08:32;;;;;;;8.23;5.88;;;20.60;50.90;;;;;;5004073;28;20054;-60
2022/11/08 05:11:05;;;;;;;6.88;5.60;;;20.50;50.80;;;;;;5008077;28;20046;-60
2022/11/08 05:13:32;;;;;;;6.60;5.47;;;20.60;50.80;;;;;;5008134;28;20092;-60
2022/11/08 05:16:02;;;;;;;7.38;5.25;;;20.50;50.70;;;;;;5019418;28;20045;-60
2022/11/08 05:18:30;;;;;;;6.07;5.00;;;20.50;50.80;;;;;;5017497;28;20054;-60
2022/11/08 05:23:47;;;;;;;7.63;5.45;;;20.50;50.70;;;;;;5009168;28;20045;-60
2022/11/08 05:26:17;;;;;;;7.53;5.25;;;20.50;50.70;;;;;;5028386;28;20061;-60
2022/11/08 05:28:44;;;;;;;6.03;5.10;;;20.50;50.70;;;;;;5027920;28;20091;-60
2022/11/08 05:31:11;;;;;;;7.13;4.82;;;20.50;50.70;;;;;;5027367;28;20049;-60
2022/11/08 05:33:38;;;;;;;7.53;5.50;;;20.50;50.70;;;;;;5027966;28;20159;-61
2022/11/08 05:36:09;;;;;;;7.22;5.38;;;20.50;50.70;;;;;;5027265;28;20049;-61
2022/11/08 05:38:36;;;;;;;;;;;20.50;50.40;;;;;;5010771;28;20050;-61
2022/11/08 05:41:05;;;;;;;9.38;6.63;;;20.50;50.30;;;;;;5020453;28;19921;-60
2022/11/08 05:43:32;;;;;;;7.85;5.70;;;20.50;50.20;;;;;;5021237;28;20052;-60
2022/11/08 05:45:59;;;;;;;7.95;5.82;;;20.50;50.10;;;;;;5026505;28;20045;-60
2022/11/08 05:48:27;;;;;;;8.50;6.45;;;20.50;50.00;;;;;;5027746;28;20050;-60
2022/11/08 05:50:54;;;;;;;8.48;6.43;;;20.50;49.90;;;;;;5026512;28;20057;-60
2022/11/08 05:53:22;;;;;;;8.13;5.75;;;20.50;49.90;;;;;;5027358;28;20045;-60
2022/11/08 05:55:49;;;;;;;8.18;6.13;;;20.50;49.80;;;;;;5010360;28;20045;-61
2022/11/08 05:58:16;;;;;;;7.57;6.32;;;20.50;49.80;;;;;;5027755;28;20068;-61
2022/11/08 06:00:43;;;;;;;7.50;5.97;;;20.50;49.80;;;;;;5027527;28;20491;-61
2022/11/08 06:03:10;;;;;;;8.20;6.22;;;20.50;49.70;;;;;;5026063;28;20534;-60
2022/11/08 06:05:37;;;;;;;11.18;7.07;;;20.40;49.60;;;;;;5012033;28;20076;-62
2022/11/08 06:08:04;;;;;;;7.63;6.25;;;20.50;49.60;;;;;;5011934;28;20046;-61
2022/11/08 06:10:31;;;;;;;9.40;6.25;;;20.40;49.40;;;;;;5011103;28;20529;-60
2022/11/08 06:13:02;;;;;;;9.38;6.95;;;20.40;49.40;;;;;;5007125;28;20060;-60
2022/11/08 06:15:29;;;;;;;10.85;7.50;;;20.40;49.30;;;;;;5019358;28;20045;-60
2022/11/08 06:18:01;;;;;;;8.02;6.68;;;20.40;49.20;;;;;;5029807;28;20056;-60
2022/11/08 06:20:28;;;;;;;7.75;6.63;;;20.50;49.20;;;;;;5026658;28;20057;-61
2022/11/08 06:22:56;;;;;;;10.70;7.55;;;20.40;49.00;;;;;;5023763;28;20495;-59
2022/11/08 06:25:23;;;;;;;8.88;6.70;;;20.50;49.70;;;;;;5023874;28;20103;-61
2022/11/08 06:27:50;;;;;;;13.60;7.10;;;20.40;49.20;;;;;;5019011;28;20052;-60
2022/11/08 06:30:17;;;;;;;10.63;7.57;;;20.50;49.30;;;;;;5022747;28;20136;-59
2022/11/08 06:32:44;;;;;;;8.80;6.75;;;20.50;49.30;;;;;;5025722;28;20384;-59
2022/11/08 06:35:11;;;;;;;9.68;7.35;;;20.50;49.30;;;;;;5027034;28;20056;-60
2022/11/08 06:37:38;;;;;;;11.45;7.40;;;20.60;49.30;;;;;;5016444;28;20045;-60
2022/11/08 06:40:06;;;;;;;17.10;10.57;;;20.60;49.30;;;;;;5017124;28;20141;-60
2022/11/08 06:42:33;;;;;;;17.88;12.35;;;20.60;49.20;;;;;;5017964;28;20049;-59
2022/11/08 06:45:00;;;;;;;15.02;11.48;;;20.60;49.20;;;;;;5021469;28;20055;-60
2022/11/08 06:47:27;;;;;;;20.52;13.20;;;20.60;49.20;;;;;;5020066;28;20049;-59
2022/11/08 06:49:54;;;;;;;23.60;14.35;;;20.70;49.20;;;;;;5019213;28;20052;-62
2022/11/08 06:52:22;;;;;;;21.35;13.30;;;20.70;49.20;;;;;;5021642;28;20081;-61
2022/11/08 06:54:49;;;;;;;22.58;14.02;;;20.70;49.40;;;;;;5019392;28;20775;-60
2022/11/08 06:57:16;;;;;;;16.17;11.68;;;20.80;49.60;;;;;;5020334;28;20479;-59
2022/11/08 06:59:43;;;;;;;23.60;13.35;;;20.80;49.60;;;;;;5017743;28;20521;-59
2022/11/08 07:02:18;;;;;;;19.48;13.43;;;20.80;49.70;;;;;;5016660;28;20050;-59
2022/11/08 07:04:45;;;;;;;20.90;13.27;;;20.90;49.70;;;;;;5022262;28;20514;-59
2022/11/08 07:07:13;;;;;;;21.25;13.95;;;20.90;49.70;;;;;;5022573;28;20050;-60
2022/11/08 07:09:40;;;;;;;20.38;13.10;;;21.00;49.80;;;;;;5015323;28;20521;-59
2022/11/08 07:12:08;;;;;;;22.38;14.98;;;21.00;49.60;;;;;;5022332;28;20124;-61
2022/11/08 07:14:36;;;;;;;22.33;14.32;;;21.00;49.50;;;;;;5020781;28;20061;-58
2022/11/08 07:17:03;;;;;;;23.45;15.15;;;21.10;49.60;;;;;;5010336;28;20037;-59
2022/11/08 07:19:30;;;;;;;20.15;14.25;;;21.10;49.50;;;;;;5017055;28;20075;-59
2022/11/08 07:21:57;;;;;;;23.65;13.10;;;21.20;49.50;;;;;;5018671;28;20046;-58
2022/11/08 07:24:24;;;;;;;25.33;14.77;;;21.20;49.50;;;;;;5020829;28;20056;-58
2022/11/08 07:26:51;;;;;;;20.95;13.40;;;21.30;49.50;;;;;;5018786;28;20072;-59
2022/11/08 07:29:18;;;;;;;23.70;14.43;;;21.30;49.50;;;;;;5016403;28;20055;-59
2022/11/08 07:31:46;;;;;;;21.77;13.85;;;21.30;49.90;;;;;;5016251;28;20402;-60
2022/11/08 07:34:13;;;;;;;24.33;14.18;;;21.40;49.50;;;;;;5021687;28;20045;-60
2022/11/08 07:36:40;;;;;;;23.83;14.63;;;21.40;49.50;;;;;;5022168;28;20055;-60
2022/11/08 07:39:08;;;;;;;24.25;14.68;;;21.50;49.60;;;;;;5020208;28;20095;-59
2022/11/08 07:41:35;;;;;;;23.98;14.80;;;21.50;49.60;;;;;;5017224;28;20521;-59
2022/11/08 07:44:02;;;;;;;27.67;16.05;;;21.60;49.50;;;;;;5020634;28;20041;-60
2022/11/08 07:46:29;;;;;;;28.27;15.10;;;21.60;49.50;;;;;;5000122;28;20476;-59
2022/11/08 07:48:56;;;;;;;27.00;15.00;;;21.60;49.40;;;;;;5013409;28;20046;-59
2022/11/08 07:51:24;;;;;;;23.77;14.90;;;21.60;49.40;;;;;;5023493;28;20045;-59
2022/11/08 07:53:51;;;;;;;24.17;15.35;;;21.70;49.40;;;;;;5017987;28;20108;-59
2022/11/08 07:56:18;;;;;;;29.80;15.98;;;21.70;49.40;;;;;;5017654;28;20053;-58
2022/11/08 07:58:45;;;;;;;30.02;16.17;;;21.70;49.30;;;;;;5021802;28;20140;-61
2022/11/08 08:01:12;;;;;;;27.90;15.65;;;21.80;49.30;;;;;;5000213;28;20046;-61
2022/11/08 08:03:40;;;;;;;25.40;15.68;;;21.80;49.30;;;;;;5018189;28;20053;-59
2022/11/08 08:06:07;;;;;;;29.85;16.45;;;21.90;49.30;;;;;;5010193;28;20095;-59
2022/11/08 08:08:34;;;;;;;25.58;15.43;;;21.90;49.30;;;;;;5014874;28;20049;-58
2022/11/08 08:11:03;;;;;;;28.02;15.50;;;21.90;49.20;;;;;;5018165;28;20049;-62
2022/11/08 08:13:31;;;;;;;26.90;16.15;;;22.00;49.20;;;;;;5015268;28;20136;-61
2022/11/08 08:15:59;;;;;;;27.10;15.95;;;21.90;49.10;;;;;;5016070;28;20042;-59
2022/11/08 08:18:28;;;;;;;26.88;15.70;;;22.00;49.10;;;;;;5016324;28;20048;-60
2022/11/08 08:20:55;;;;;;;24.63;15.30;;;22.00;49.20;;;;;;5011273;28;20088;-62
2022/11/08 08:23:23;;;;;;;24.10;15.10;;;22.10;49.30;;;;;;5018071;28;20049;-59
2022/11/08 08:25:50;;;;;;;23.45;14.43;;;22.10;49.10;;;;;;5016627;28;20064;-60
2022/11/08 08:28:18;;;;;;;25.55;14.02;;;22.10;49.00;;;;;;5019478;28;20419;-59
2022/11/08 08:30:45;;;;;;;22.08;13.93;;;22.20;49.10;;;;;;5017150;28;20049;-60
2022/11/08 08:33:15;;;;;;;23.85;13.45;;;22.20;49.10;;;;;;5015175;28;20053;-59
2022/11/08 08:36:00;;;;;;;26.15;13.10;;;22.20;49.00;;;;;;5011215;28;20063;-61
2022/11/08 08:38:29;;;;;;;25.20;13.88;;;22.30;49.10;;;;;;5015127;28;20910;-59
2022/11/08 08:40:57;;;;;;;21.65;12.77;;;22.30;49.20;;;;;;5015745;28;20049;-60
2022/11/08 08:43:26;;;;;;;20.52;13.15;;;22.30;49.20;;;;;;5015318;28;20125;-60
2022/11/08 08:45:57;;;;;;;21.90;12.93;;;22.40;49.20;;;;;;5019870;28;20569;-60
2022/11/08 08:48:24;;;;;;;20.15;13.15;;;22.40;49.20;;;;;;4997395;28;20056;-60
2022/11/08 08:50:52;;;;;;;19.83;11.65;;;22.40;49.10;;;;;;5017868;28;20045;-61
2022/11/08 08:53:19;;;;;;;19.30;12.68;;;22.40;49.10;;;;;;5014131;28;20128;-60
2022/11/08 08:55:47;;;;;;;18.63;11.90;;;22.50;49.20;;;;;;5017560;28;20084;-62
2022/11/08 08:58:14;;;;;;;21.80;11.88;;;22.50;49.10;;;;;;5011375;28;20056;-61
2022/11/08 09:00:42;;;;;;;17.50;11.70;;;22.50;49.20;;;;;;5015723;28;20498;-62
2022/11/08 09:03:32;;;;;;;15.10;10.32;;;22.50;49.10;;;;;;5012806;28;20045;-61
2022/11/08 09:06:00;;;;;;;17.65;11.25;;;22.60;49.10;;;;;;5011666;28;20053;-60
2022/11/08 09:08:28;;;;;;;19.48;10.73;;;22.60;49.00;;;;;;5014748;28;20041;-61
2022/11/08 09:10:56;;;;;;;18.73;11.00;;;22.60;49.00;;;;;;5014611;28;20097;-60
2022/11/08 09:13:25;;;;;;;15.88;11.10;;;22.60;48.80;;;;;;5008847;28;20054;-60
2022/11/08 09:15:53;;;;;;;19.48;12.13;;;22.60;48.40;;;;;;5010974;28;20060;-60
2022/11/08 09:18:20;;;;;;;17.55;10.35;;;22.60;48.20;;;;;;5014754;28;20046;-61
2022/11/08 09:20:47;;;;;;;14.73;10.30;;;22.70;48.20;;;;;;5011898;28;20077;-60
2022/11/08 09:23:16;;;;;;;18.55;11.85;;;22.70;48.10;;;;;;4997069;28;20133;-60
2022/11/08 09:25:44;;;;;;;17.30;10.63;;;22.70;48.20;;;;;;5011444;28;20052;-60
2022/11/08 09:28:11;;;;;;;16.98;10.43;;;22.70;48.20;;;;;;5014787;28;20620;-61
2022/11/08 09:30:38;;;;;;;14.82;9.80;;;22.70;48.20;;;;;;4994283;28;20053;-59
2022/11/08 09:33:08;;;;;;;23.17;10.63;;;22.70;48.20;;;;;;5008627;28;20824;-59
2022/11/08 09:35:36;;;;;;;13.75;9.10;;;22.70;48.20;;;;;;5013664;28;20072;-61
2022/11/08 09:38:03;;;;;;;15.18;10.10;;;22.80;48.20;;;;;;5015290;28;20042;-61
2022/11/08 09:40:41;;;;;;;14.18;9.70;;;22.80;48.20;;;;;;5013124;28;20049;-59
2022/11/08 09:43:50;;;;;;;24.67;11.10;;;22.80;48.10;;;;;;5020165;28;20069;-59
2022/11/08 09:46:27;;;;;;;14.55;9.35;;;22.80;48.00;;;;;;4999597;28;20123;-59
2022/11/08 09:48:56;;;;;;;17.90;11.00;;;22.80;47.90;;;;;;5014041;28;20054;-58
2022/11/08 09:51:24;;;;;;;17.77;11.53;;;22.90;47.80;;;;;;5020504;28;20076;-60
2022/11/08 09:53:55;;;;;;;19.17;9.20;;;22.90;47.80;;;;;;5016892;28;20491;-60
2022/11/08 09:56:30;;;;;;;15.93;10.00;;;22.90;47.80;;;;;;5014424;28;20507;-62
2022/11/08 09:59:23;;;;;;;26.10;10.52;;;23.00;47.80;;;;;;5014328;28;20046;-61
2022/11/08 10:01:50;;;;;;;13.68;9.27;;;23.00;47.70;;;;;;5000079;28;20057;-61
2022/11/08 10:04:21;;;;;;;14.55;9.70;;;23.00;47.60;;;;;;5021145;28;20049;-60
2022/11/08 10:07:28;;;;;;;16.00;9.10;;;23.00;47.50;;;;;;5019981;28;20060;-59
2022/11/08 10:10:32;;;;;;;15.73;9.10;;;23.00;47.40;;;;;;5018438;28;20060;-60
2022/11/08 10:13:36;;;;;;;12.23;9.23;;;23.10;47.40;;;;;;5018811;28;20041;-59
2022/11/08 10:16:37;;;;;;;15.90;8.73;;;23.10;47.20;;;;;;5001241;28;20424;-59
2022/11/08 10:19:37;;;;;;;13.40;8.02;;;23.10;47.00;;;;;;5021806;28;20149;-59
2022/11/08 10:22:21;;;;;;;15.43;9.35;;;23.10;46.80;;;;;;5018989;28;20053;-61
2022/11/08 10:25:00;;;;;;;12.45;8.75;;;23.10;47.20;;;;;;5016018;28;20054;-60
2022/11/08 10:27:41;;;;;;;14.33;9.17;;;23.10;46.60;;;;;;5018253;28;20065;-60
2022/11/08 10:30:21;;;;;;;16.83;8.77;;;23.10;46.60;;;;;;4989512;28;20051;-60
2022/11/08 10:32:54;;;;;;;17.02;9.18;;;23.10;46.50;;;;;;5025507;28;20056;-60
2022/11/08 10:35:40;;;;;;;13.13;8.25;;;23.10;46.50;;;;;;5019362;28;20057;-60
2022/11/08 10:38:17;;;;;;;14.98;9.05;;;23.10;46.50;;;;;;5017590;28;20045;-60
2022/11/08 10:40:58;;;;;;;12.80;8.90;;;23.10;46.40;;;;;;5008746;28;20053;-60
2022/11/08 10:43:42;;;;;;;13.35;8.02;;;23.10;46.40;;;;;;5014905;28;20568;-60
2022/11/08 10:46:47;;;;;;;13.25;8.63;;;23.10;46.30;;;;;;5017978;28;20057;-60
2022/11/08 10:49:19;;;;;;;16.10;8.85;;;23.10;46.30;;;;;;5021622;28;20049;-61
2022/11/08 10:51:50;;;;;;;16.02;9.18;;;23.10;46.30;;;;;;5022300;28;20454;-61
2022/11/08 10:54:51;;;;;;;11.10;7.38;;;23.10;46.20;;;;;;5022394;28;20060;-60
2022/11/08 10:57:41;;;;;;;12.35;7.68;;;23.10;46.20;;;;;;5000081;28;20081;-60
2022/11/08 11:00:22;;;;;;;;;;;23.10;46.20;;;;;;5020414;28;20045;-60
2022/11/08 11:02:51;;;;;;;;;;;23.20;46.30;;;;;;5016410;28;20382;-62
2022/11/08 11:05:29;;;;;;;11.38;7.97;;;23.10;46.40;;;;;;5022617;28;19929;-60
2022/11/08 11:08:12;;;;;;;10.27;7.40;;;23.10;46.40;;;;;;5023164;28;20526;-61
2022/11/08 11:10:45;;;;;;;13.50;8.05;;;23.10;46.40;;;;;;5002465;28;20041;-61
2022/11/08 11:13:26;;;;;;;13.95;7.55;;;23.20;46.40;;;;;;5023250;28;20061;-61
2022/11/08 11:16:04;;;;;;;19.95;7.88;;;23.20;46.40;;;;;;4988930;28;20046;-61
2022/11/08 11:18:44;;;;;;;12.38;7.97;;;23.20;46.30;;;;;;5019197;28;20502;-61
2022/11/08 11:21:15;;;;;;;11.75;7.47;;;23.20;46.10;;;;;;5019322;28;20053;-60
2022/11/08 11:24:13;;;;;;;13.52;7.95;;;23.20;46.10;;;;;;5016401;28;20056;-60
2022/11/08 11:26:48;;;;;;;10.75;7.78;;;23.20;46.00;;;;;;5020471;28;20068;-61
2022/11/08 11:29:37;;;;;;;11.65;8.35;;;23.30;46.00;;;;;;5022977;28;20045;-60
2022/11/08 11:32:32;;;;;;;10.23;7.43;;;23.30;45.80;;;;;;5017806;28;20041;-60
2022/11/08 11:35:05;;;;;;;11.25;7.10;;;23.20;45.80;;;;;;5015947;28;20045;-59
2022/11/08 11:37:47;;;;;;;8.90;6.95;;;23.30;45.80;;;;;;5019880;28;20053;-60
2022/11/08 11:40:33;;;;;;;10.35;7.25;;;23.30;45.80;;;;;;5017101;28;20052;-59
2022/11/08 11:43:26;;;;;;;10.15;7.20;;;23.20;45.80;;;;;;5016657;28;20046;-61
2022/11/08 11:46:25;;;;;;;11.52;7.63;;;23.30;46.00;;;;;;5012335;28;21021;-60
2022/11/08 11:49:00;;;;;;;11.35;7.60;;;23.30;46.20;;;;;;5016570;28;20060;-60
2022/11/08 11:51:29;;;;;;;10.73;7.10;;;23.30;46.30;;;;;;5022332;28;20038;-63
2022/11/08 11:53:57;;;;;;;13.10;7.72;;;23.30;46.30;;;;;;5020321;28;20128;-61
2022/11/08 11:56:42;;;;;;;13.65;8.45;;;23.30;46.30;;;;;;5018993;28;20037;-64
2022/11/08 11:59:47;;;;;;;14.15;7.93;;;23.40;46.40;;;;;;5020897;28;20054;-64
2022/11/08 12:02:54;;;;;;;13.63;8.32;;;23.40;46.50;;;;;;5025548;28;20056;-62
2022/11/08 12:06:01;;;;;;;14.93;7.50;;;23.40;46.60;;;;;;5005325;28;20049;-62
2022/11/08 12:08:59;;;;;;;13.35;7.95;;;23.40;46.50;;;;;;5009722;28;20063;-60
2022/11/08 12:11:41;;;;;;;14.68;8.82;;;23.40;46.50;;;;;;5023777;28;20506;-61
2022/11/08 12:14:33;;;;;;;13.55;8.10;;;23.50;46.60;;;;;;5022269;28;20049;-60
2022/11/08 12:17:41;;;;;;;11.68;8.35;;;23.50;46.40;;;;;;5019790;28;20041;-60
2022/11/08 12:20:45;;;;;;;13.18;9.18;;;23.50;46.40;;;;;;5017837;28;20042;-60
2022/11/08 12:23:46;;;;;;;15.70;9.23;;;23.50;46.20;;;;;;5018399;28;20115;-59
2022/11/08 12:26:49;;;;;;;16.20;8.98;;;23.50;46.10;;;;;;5020005;28;20053;-61
2022/11/08 12:29:26;;;;;;;18.58;9.50;;;23.60;46.40;;;;;;5018545;28;20191;-60
2022/11/08 12:32:25;;;;;;;15.38;10.10;;;23.60;46.00;;;;;;5013166;28;20139;-61
2022/11/08 12:35:29;;;;;;;15.75;9.70;;;23.60;45.90;;;;;;5016877;28;20050;-59
2022/11/08 12:38:11;;;;;;;15.15;9.77;;;23.60;45.90;;;;;;5005116;28;20057;-58
2022/11/08 12:41:03;;;;;;;17.00;9.65;;;23.60;45.80;;;;;;5018828;28;20048;-59
2022/11/08 12:44:10;;;;;;;16.75;9.95;;;23.70;45.90;;;;;;5018355;28;20313;-60
2022/11/08 12:46:52;;;;;;;17.95;9.63;;;23.70;45.90;;;;;;5018509;28;20175;-60
2022/11/08 12:49:42;;;;;;;12.55;8.88;;;23.70;45.60;;;;;;5019521;28;20058;-60
2022/11/08 12:52:40;;;;;;;16.15;9.45;;;23.70;45.60;;;;;;5013181;28;20274;-60
2022/11/08 12:55:29;;;;;;;15.40;9.13;;;23.70;45.70;;;;;;5005765;28;20107;-60
2022/11/08 12:57:59;;;;;;;16.65;10.30;;;23.70;45.70;;;;;;5016364;28;20045;-60
2022/11/08 13:00:27;;;;;;;;;;;23.70;45.60;;;;;;5019199;28;20046;-60
2022/11/08 13:03:26;;;;;;;12.18;8.55;;;23.70;45.50;;;;;;5020628;28;20294;-59
2022/11/08 13:06:08;;;;;;;15.15;9.02;;;23.70;46.10;;;;;;5013508;28;20046;-59
2022/11/08 13:08:58;;;;;;;13.68;8.98;;;23.70;45.60;;;;;;5018024;28;20045;-59
2022/11/08 13:11:47;;;;;;;13.45;8.15;;;23.70;45.80;;;;;;5003040;28;20049;-58
2022/11/08 13:14:16;;;;;;;14.30;8.73;;;23.70;46.00;;;;;;5015825;28;21944;-58
2022/11/08 13:17:05;;;;;;;14.93;9.73;;;23.70;46.00;;;;;;5015657;28;20306;-60
2022/11/08 13:19:59;;;;;;;13.50;8.45;;;23.70;45.70;;;;;;5014706;28;20133;-59
2022/11/08 13:22:42;;;;;;;14.05;9.18;;;23.80;45.70;;;;;;5017137;28;20087;-59
2022/11/08 13:25:33;;;;;;;13.35;8.50;;;23.80;45.70;;;;;;5013366;28;20057;-61
2022/11/08 13:28:01;;;;;;;17.05;8.70;;;23.80;46.20;;;;;;4996230;28;20535;-60
2022/11/08 13:30:34;;;;;;;16.23;9.02;;;23.80;45.90;;;;;;5016159;28;20045;-61
2022/11/08 13:33:20;;;;;;;12.35;8.48;;;23.80;46.00;;;;;;5018394;28;20450;-62